sensor_id;sensor_type;location;lat;lon;timestamp;P1;durP1;ratioP1;P2;durP2;ratioP2
83465;SDS011;73393;51.946;20.140;2024-02-14T00:02:16;14.37;;;8.43;;
83465;SDS011;73393;51.946;20.140;2024-02-14T00:04:42;14.47;;;7.53;;
83465;SDS011;73393;51.946;20.140;2024-02-14T00:07:07;9.97;;;6.63;;
83465;SDS011;73393;51.946;20.140;2024-02-14T00:09:34;12.33;;;6.53;;
83465;SDS011;73393;51.946;20.140;2024-02-14T00:11:59;12.73;;;8.53;;
83465;SDS011;73393;51.946;20.140;2024-02-14T00:14:25;18.10;;;9.83;;
83465;SDS011;73393;51.946;20.140;2024-02-14T00:16:51;16.10;;;8.83;;
83465;SDS011;73393;51.946;20.140;2024-02-14T00:19:16;13.93;;;8.20;;
83465;SDS011;73393;51.946;20.140;2024-02-14T00:21:42;14.90;;;8.50;;
83465;SDS011;73393;51.946;20.140;2024-02-14T00:24:08;17.70;;;9.17;;
83465;SDS011;73393;51.946;20.140;2024-02-14T00:26:33;17.27;;;9.33;;
83465;SDS011;73393;51.946;20.140;2024-02-14T00:28:59;18.53;;;10.40;;
83465;SDS011;73393;51.946;20.140;2024-02-14T00:31:25;15.70;;;9.67;;
83465;SDS011;73393;51.946;20.140;2024-02-14T00:33:50;16.57;;;8.93;;
83465;SDS011;73393;51.946;20.140;2024-02-14T00:36:16;12.33;;;8.10;;
83465;SDS011;73393;51.946;20.140;2024-02-14T00:38:42;15.23;;;9.70;;
83465;SDS011;73393;51.946;20.140;2024-02-14T00:41:10;14.13;;;8.00;;
83465;SDS011;73393;51.946;20.140;2024-02-14T00:43:36;16.73;;;9.03;;
83465;SDS011;73393;51.946;20.140;2024-02-14T00:46:01;19.00;;;9.90;;
83465;SDS011;73393;51.946;20.140;2024-02-14T00:48:27;19.23;;;10.50;;
83465;SDS011;73393;51.946;20.140;2024-02-14T00:50:53;18.40;;;11.57;;
83465;SDS011;73393;51.946;20.140;2024-02-14T00:53:19;13.70;;;8.13;;
83465;SDS011;73393;51.946;20.140;2024-02-14T00:55:45;12.20;;;7.67;;
83465;SDS011;73393;51.946;20.140;2024-02-14T00:58:11;12.97;;;7.33;;
83465;SDS011;73393;51.946;20.140;2024-02-14T01:00:37;15.93;;;8.87;;
83465;SDS011;73393;51.946;20.140;2024-02-14T01:03:02;13.67;;;8.43;;
83465;SDS011;73393;51.946;20.140;2024-02-14T01:05:28;14.27;;;8.63;;
83465;SDS011;73393;51.946;20.140;2024-02-14T01:07:53;12.43;;;8.13;;
83465;SDS011;73393;51.946;20.140;2024-02-14T01:10:19;16.73;;;7.83;;
83465;SDS011;73393;51.946;20.140;2024-02-14T01:12:45;12.80;;;8.23;;
83465;SDS011;73393;51.946;20.140;2024-02-14T01:15:11;15.77;;;7.83;;
83465;SDS011;73393;51.946;20.140;2024-02-14T01:17:36;15.23;;;8.53;;
83465;SDS011;73393;51.946;20.140;2024-02-14T01:20:03;19.27;;;10.50;;
83465;SDS011;73393;51.946;20.140;2024-02-14T01:22:31;24.50;;;10.43;;
83465;SDS011;73393;51.946;20.140;2024-02-14T01:24:57;26.50;;;12.63;;
83465;SDS011;73393;51.946;20.140;2024-02-14T01:27:24;31.57;;;15.50;;
83465;SDS011;73393;51.946;20.140;2024-02-14T01:29:49;38.50;;;19.57;;
83465;SDS011;73393;51.946;20.140;2024-02-14T01:32:15;39.30;;;17.93;;
83465;SDS011;73393;51.946;20.140;2024-02-14T01:34:40;38.50;;;16.93;;
83465;SDS011;73393;51.946;20.140;2024-02-14T01:37:08;29.53;;;15.87;;
83465;SDS011;73393;51.946;20.140;2024-02-14T01:39:37;31.20;;;14.43;;
83465;SDS011;73393;51.946;20.140;2024-02-14T01:42:03;26.07;;;13.97;;
83465;SDS011;73393;51.946;20.140;2024-02-14T01:44:32;29.50;;;15.03;;
83465;SDS011;73393;51.946;20.140;2024-02-14T01:46:59;28.23;;;14.77;;
83465;SDS011;73393;51.946;20.140;2024-02-14T01:49:26;29.17;;;15.47;;
83465;SDS011;73393;51.946;20.140;2024-02-14T01:51:53;24.87;;;14.33;;
83465;SDS011;73393;51.946;20.140;2024-02-14T01:54:20;27.73;;;14.77;;
83465;SDS011;73393;51.946;20.140;2024-02-14T01:56:47;28.20;;;13.43;;
83465;SDS011;73393;51.946;20.140;2024-02-14T01:59:13;28.70;;;14.47;;
83465;SDS011;73393;51.946;20.140;2024-02-14T02:01:40;30.57;;;14.80;;
83465;SDS011;73393;51.946;20.140;2024-02-14T02:04:06;30.10;;;14.63;;
83465;SDS011;73393;51.946;20.140;2024-02-14T02:06:33;28.37;;;15.60;;
83465;SDS011;73393;51.946;20.140;2024-02-14T02:08:59;28.77;;;13.93;;
83465;SDS011;73393;51.946;20.140;2024-02-14T02:11:25;31.37;;;16.07;;
83465;SDS011;73393;51.946;20.140;2024-02-14T02:13:51;25.87;;;16.43;;
83465;SDS011;73393;51.946;20.140;2024-02-14T02:16:17;28.53;;;14.67;;
83465;SDS011;73393;51.946;20.140;2024-02-14T02:18:44;30.33;;;15.27;;
83465;SDS011;73393;51.946;20.140;2024-02-14T02:21:10;27.40;;;13.80;;
83465;SDS011;73393;51.946;20.140;2024-02-14T02:23:37;30.10;;;13.87;;
83465;SDS011;73393;51.946;20.140;2024-02-14T02:26:05;31.97;;;15.47;;
83465;SDS011;73393;51.946;20.140;2024-02-14T02:28:31;27.80;;;14.07;;
83465;SDS011;73393;51.946;20.140;2024-02-14T02:30:56;30.67;;;14.13;;
83465;SDS011;73393;51.946;20.140;2024-02-14T02:33:22;32.90;;;16.20;;
83465;SDS011;73393;51.946;20.140;2024-02-14T02:35:48;27.93;;;15.87;;
83465;SDS011;73393;51.946;20.140;2024-02-14T02:38:14;38.03;;;19.50;;
83465;SDS011;73393;51.946;20.140;2024-02-14T02:40:44;36.90;;;17.83;;
83465;SDS011;73393;51.946;20.140;2024-02-14T02:43:10;34.77;;;16.57;;
83465;SDS011;73393;51.946;20.140;2024-02-14T02:45:36;46.27;;;21.90;;
83465;SDS011;73393;51.946;20.140;2024-02-14T02:48:01;41.43;;;20.90;;
83465;SDS011;73393;51.946;20.140;2024-02-14T02:50:27;47.27;;;21.90;;
83465;SDS011;73393;51.946;20.140;2024-02-14T02:52:54;50.17;;;23.67;;
83465;SDS011;73393;51.946;20.140;2024-02-14T02:55:19;45.60;;;24.33;;
83465;SDS011;73393;51.946;20.140;2024-02-14T02:57:45;58.50;;;26.30;;
83465;SDS011;73393;51.946;20.140;2024-02-14T03:00:11;49.47;;;26.37;;
83465;SDS011;73393;51.946;20.140;2024-02-14T03:02:38;51.00;;;26.13;;
83465;SDS011;73393;51.946;20.140;2024-02-14T03:05:09;55.28;;;28.23;;
83465;SDS011;73393;51.946;20.140;2024-02-14T03:07:38;63.00;;;28.20;;
83465;SDS011;73393;51.946;20.140;2024-02-14T03:10:04;57.47;;;29.17;;
83465;SDS011;73393;51.946;20.140;2024-02-14T03:12:30;64.77;;;29.33;;
83465;SDS011;73393;51.946;20.140;2024-02-14T03:14:57;53.37;;;26.43;;
83465;SDS011;73393;51.946;20.140;2024-02-14T03:17:25;46.97;;;24.93;;
83465;SDS011;73393;51.946;20.140;2024-02-14T03:19:53;45.23;;;23.23;;
83465;SDS011;73393;51.946;20.140;2024-02-14T03:22:21;45.90;;;24.17;;
83465;SDS011;73393;51.946;20.140;2024-02-14T03:24:47;44.63;;;23.33;;
83465;SDS011;73393;51.946;20.140;2024-02-14T03:27:13;43.17;;;22.87;;
83465;SDS011;73393;51.946;20.140;2024-02-14T03:29:38;41.23;;;21.43;;
83465;SDS011;73393;51.946;20.140;2024-02-14T03:32:04;43.73;;;23.70;;
83465;SDS011;73393;51.946;20.140;2024-02-14T03:34:31;36.93;;;21.13;;
83465;SDS011;73393;51.946;20.140;2024-02-14T03:36:58;35.60;;;19.50;;
83465;SDS011;73393;51.946;20.140;2024-02-14T03:39:26;36.20;;;19.33;;
83465;SDS011;73393;51.946;20.140;2024-02-14T03:41:51;34.23;;;20.10;;
83465;SDS011;73393;51.946;20.140;2024-02-14T03:44:19;35.33;;;19.40;;
83465;SDS011;73393;51.946;20.140;2024-02-14T03:46:45;35.13;;;18.77;;
83465;SDS011;73393;51.946;20.140;2024-02-14T03:49:12;33.93;;;18.43;;
83465;SDS011;73393;51.946;20.140;2024-02-14T03:51:38;28.93;;;17.10;;
83465;SDS011;73393;51.946;20.140;2024-02-14T03:54:03;31.47;;;16.40;;
83465;SDS011;73393;51.946;20.140;2024-02-14T03:56:30;40.97;;;21.50;;
83465;SDS011;73393;51.946;20.140;2024-02-14T03:58:58;54.17;;;25.03;;
83465;SDS011;73393;51.946;20.140;2024-02-14T04:01:24;52.23;;;24.50;;
83465;SDS011;73393;51.946;20.140;2024-02-14T04:03:50;58.90;;;25.97;;
83465;SDS011;73393;51.946;20.140;2024-02-14T04:06:15;48.23;;;23.77;;
83465;SDS011;73393;51.946;20.140;2024-02-14T04:08:42;55.17;;;27.70;;
83465;SDS011;73393;51.946;20.140;2024-02-14T04:11:08;48.40;;;22.97;;
83465;SDS011;73393;51.946;20.140;2024-02-14T04:13:34;48.13;;;24.10;;
83465;SDS011;73393;51.946;20.140;2024-02-14T04:16:00;42.73;;;21.57;;
83465;SDS011;73393;51.946;20.140;2024-02-14T04:18:25;43.00;;;20.67;;
83465;SDS011;73393;51.946;20.140;2024-02-14T04:20:51;43.23;;;22.13;;
83465;SDS011;73393;51.946;20.140;2024-02-14T04:23:16;55.37;;;26.87;;
83465;SDS011;73393;51.946;20.140;2024-02-14T04:25:42;42.53;;;23.57;;
83465;SDS011;73393;51.946;20.140;2024-02-14T04:28:08;37.73;;;20.70;;
83465;SDS011;73393;51.946;20.140;2024-02-14T04:30:36;45.70;;;22.53;;
83465;SDS011;73393;51.946;20.140;2024-02-14T04:33:03;45.00;;;25.53;;
83465;SDS011;73393;51.946;20.140;2024-02-14T04:35:30;51.80;;;26.60;;
83465;SDS011;73393;51.946;20.140;2024-02-14T04:37:55;51.50;;;27.47;;
83465;SDS011;73393;51.946;20.140;2024-02-14T04:40:21;64.80;;;32.23;;
83465;SDS011;73393;51.946;20.140;2024-02-14T04:42:47;64.43;;;29.67;;
83465;SDS011;73393;51.946;20.140;2024-02-14T04:45:13;51.57;;;25.97;;
83465;SDS011;73393;51.946;20.140;2024-02-14T04:47:38;48.37;;;26.17;;
83465;SDS011;73393;51.946;20.140;2024-02-14T04:50:04;48.97;;;26.20;;
83465;SDS011;73393;51.946;20.140;2024-02-14T04:52:30;45.07;;;24.87;;
83465;SDS011;73393;51.946;20.140;2024-02-14T04:54:56;45.07;;;23.77;;
83465;SDS011;73393;51.946;20.140;2024-02-14T04:57:22;40.43;;;20.70;;
83465;SDS011;73393;51.946;20.140;2024-02-14T04:59:48;37.10;;;20.80;;
83465;SDS011;73393;51.946;20.140;2024-02-14T05:02:14;39.77;;;21.63;;
83465;SDS011;73393;51.946;20.140;2024-02-14T05:04:39;43.93;;;21.43;;
83465;SDS011;73393;51.946;20.140;2024-02-14T05:07:05;40.63;;;21.37;;
83465;SDS011;73393;51.946;20.140;2024-02-14T05:09:31;37.53;;;21.93;;
83465;SDS011;73393;51.946;20.140;2024-02-14T05:11:57;40.23;;;19.87;;
83465;SDS011;73393;51.946;20.140;2024-02-14T05:14:22;44.77;;;22.10;;
83465;SDS011;73393;51.946;20.140;2024-02-14T05:16:48;37.80;;;20.97;;
83465;SDS011;73393;51.946;20.140;2024-02-14T05:19:14;35.23;;;21.60;;
83465;SDS011;73393;51.946;20.140;2024-02-14T05:21:40;32.57;;;18.37;;
83465;SDS011;73393;51.946;20.140;2024-02-14T05:24:05;32.33;;;18.17;;
83465;SDS011;73393;51.946;20.140;2024-02-14T05:26:31;35.50;;;19.10;;
83465;SDS011;73393;51.946;20.140;2024-02-14T05:28:57;35.13;;;18.07;;
83465;SDS011;73393;51.946;20.140;2024-02-14T05:31:24;36.57;;;20.77;;
83465;SDS011;73393;51.946;20.140;2024-02-14T05:33:49;38.70;;;21.53;;
83465;SDS011;73393;51.946;20.140;2024-02-14T05:36:15;47.83;;;24.53;;
83465;SDS011;73393;51.946;20.140;2024-02-14T05:38:42;50.30;;;24.23;;
83465;SDS011;73393;51.946;20.140;2024-02-14T05:41:07;46.10;;;24.97;;
83465;SDS011;73393;51.946;20.140;2024-02-14T05:43:33;54.73;;;27.83;;
83465;SDS011;73393;51.946;20.140;2024-02-14T05:45:59;58.60;;;29.40;;
83465;SDS011;73393;51.946;20.140;2024-02-14T05:48:25;84.20;;;39.93;;
83465;SDS011;73393;51.946;20.140;2024-02-14T05:50:51;73.23;;;37.83;;
83465;SDS011;73393;51.946;20.140;2024-02-14T05:53:16;68.73;;;36.13;;
83465;SDS011;73393;51.946;20.140;2024-02-14T05:55:42;79.07;;;35.63;;
83465;SDS011;73393;51.946;20.140;2024-02-14T05:58:07;67.30;;;33.43;;
83465;SDS011;73393;51.946;20.140;2024-02-14T06:00:33;59.17;;;35.07;;
83465;SDS011;73393;51.946;20.140;2024-02-14T06:02:59;68.73;;;33.20;;
83465;SDS011;73393;51.946;20.140;2024-02-14T06:05:24;70.90;;;33.10;;
83465;SDS011;73393;51.946;20.140;2024-02-14T06:07:50;66.90;;;30.53;;
83465;SDS011;73393;51.946;20.140;2024-02-14T06:10:16;74.77;;;31.13;;
83465;SDS011;73393;51.946;20.140;2024-02-14T06:12:44;73.37;;;33.53;;
83465;SDS011;73393;51.946;20.140;2024-02-14T06:15:12;66.37;;;33.07;;
83465;SDS011;73393;51.946;20.140;2024-02-14T06:17:38;73.50;;;33.27;;
83465;SDS011;73393;51.946;20.140;2024-02-14T06:20:04;64.97;;;32.07;;
83465;SDS011;73393;51.946;20.140;2024-02-14T06:22:32;63.47;;;30.17;;
83465;SDS011;73393;51.946;20.140;2024-02-14T06:24:58;69.40;;;33.80;;
83465;SDS011;73393;51.946;20.140;2024-02-14T06:27:24;61.70;;;32.30;;
83465;SDS011;73393;51.946;20.140;2024-02-14T06:29:50;73.60;;;37.53;;
83465;SDS011;73393;51.946;20.140;2024-02-14T06:32:16;65.90;;;33.67;;
83465;SDS011;73393;51.946;20.140;2024-02-14T06:34:41;70.33;;;35.13;;
83465;SDS011;73393;51.946;20.140;2024-02-14T06:37:07;63.80;;;32.10;;
83465;SDS011;73393;51.946;20.140;2024-02-14T06:39:32;69.63;;;33.80;;
83465;SDS011;73393;51.946;20.140;2024-02-14T06:41:58;63.17;;;30.93;;
83465;SDS011;73393;51.946;20.140;2024-02-14T06:44:24;52.43;;;28.27;;
83465;SDS011;73393;51.946;20.140;2024-02-14T06:46:49;46.03;;;25.70;;
83465;SDS011;73393;51.946;20.140;2024-02-14T06:49:18;49.23;;;26.20;;
83465;SDS011;73393;51.946;20.140;2024-02-14T06:51:44;48.97;;;24.83;;
83465;SDS011;73393;51.946;20.140;2024-02-14T06:54:10;55.80;;;26.93;;
83465;SDS011;73393;51.946;20.140;2024-02-14T06:56:37;44.67;;;25.23;;
83465;SDS011;73393;51.946;20.140;2024-02-14T06:59:03;45.10;;;23.53;;
83465;SDS011;73393;51.946;20.140;2024-02-14T07:01:30;43.00;;;24.80;;
83465;SDS011;73393;51.946;20.140;2024-02-14T07:03:56;41.73;;;24.70;;
83465;SDS011;73393;51.946;20.140;2024-02-14T07:06:22;41.10;;;26.90;;
83465;SDS011;73393;51.946;20.140;2024-02-14T07:08:47;43.30;;;24.17;;
83465;SDS011;73393;51.946;20.140;2024-02-14T07:11:13;42.70;;;26.00;;
83465;SDS011;73393;51.946;20.140;2024-02-14T07:13:40;40.20;;;24.00;;
83465;SDS011;73393;51.946;20.140;2024-02-14T07:16:06;39.10;;;23.03;;
83465;SDS011;73393;51.946;20.140;2024-02-14T07:18:33;38.17;;;22.73;;
83465;SDS011;73393;51.946;20.140;2024-02-14T07:20:59;39.87;;;21.37;;
83465;SDS011;73393;51.946;20.140;2024-02-14T07:23:24;34.80;;;20.60;;
83465;SDS011;73393;51.946;20.140;2024-02-14T07:25:51;42.13;;;19.60;;
83465;SDS011;73393;51.946;20.140;2024-02-14T07:28:16;28.23;;;17.00;;
83465;SDS011;73393;51.946;20.140;2024-02-14T07:30:42;28.23;;;16.00;;
83465;SDS011;73393;51.946;20.140;2024-02-14T07:33:08;28.23;;;17.33;;
83465;SDS011;73393;51.946;20.140;2024-02-14T07:35:34;29.33;;;17.40;;
83465;SDS011;73393;51.946;20.140;2024-02-14T07:38:01;30.37;;;16.63;;
83465;SDS011;73393;51.946;20.140;2024-02-14T07:40:27;28.87;;;17.30;;
83465;SDS011;73393;51.946;20.140;2024-02-14T07:42:55;30.13;;;15.73;;
83465;SDS011;73393;51.946;20.140;2024-02-14T07:45:24;25.43;;;17.03;;
83465;SDS011;73393;51.946;20.140;2024-02-14T07:47:50;29.37;;;17.47;;
83465;SDS011;73393;51.946;20.140;2024-02-14T07:50:16;27.13;;;15.63;;
83465;SDS011;73393;51.946;20.140;2024-02-14T07:52:42;31.23;;;16.40;;
83465;SDS011;73393;51.946;20.140;2024-02-14T07:55:11;43.87;;;24.33;;
83465;SDS011;73393;51.946;20.140;2024-02-14T07:57:37;45.23;;;24.87;;
83465;SDS011;73393;51.946;20.140;2024-02-14T08:00:06;33.17;;;18.03;;
83465;SDS011;73393;51.946;20.140;2024-02-14T08:02:33;27.47;;;14.70;;
83465;SDS011;73393;51.946;20.140;2024-02-14T08:04:59;25.33;;;15.27;;
83465;SDS011;73393;51.946;20.140;2024-02-14T08:07:25;33.10;;;15.57;;
83465;SDS011;73393;51.946;20.140;2024-02-14T08:09:51;25.50;;;15.27;;
83465;SDS011;73393;51.946;20.140;2024-02-14T08:12:17;25.33;;;14.07;;
83465;SDS011;73393;51.946;20.140;2024-02-14T08:14:42;26.60;;;15.13;;
83465;SDS011;73393;51.946;20.140;2024-02-14T08:17:08;27.30;;;17.23;;
83465;SDS011;73393;51.946;20.140;2024-02-14T08:19:34;27.17;;;15.53;;
83465;SDS011;73393;51.946;20.140;2024-02-14T08:21:59;23.83;;;15.90;;
83465;SDS011;73393;51.946;20.140;2024-02-14T08:24:26;28.53;;;16.23;;
83465;SDS011;73393;51.946;20.140;2024-02-14T08:26:52;27.23;;;14.90;;
83465;SDS011;73393;51.946;20.140;2024-02-14T08:29:18;25.60;;;13.27;;
83465;SDS011;73393;51.946;20.140;2024-02-14T08:31:44;27.30;;;17.33;;
83465;SDS011;73393;51.946;20.140;2024-02-14T08:34:10;23.33;;;15.87;;
83465;SDS011;73393;51.946;20.140;2024-02-14T08:36:35;24.13;;;13.70;;
83465;SDS011;73393;51.946;20.140;2024-02-14T08:39:09;22.80;;;13.20;;
83465;SDS011;73393;51.946;20.140;2024-02-14T08:41:37;26.40;;;14.33;;
83465;SDS011;73393;51.946;20.140;2024-02-14T08:44:08;28.08;;;16.90;;
83465;SDS011;73393;51.946;20.140;2024-02-14T08:46:34;24.40;;;14.90;;
83465;SDS011;73393;51.946;20.140;2024-02-14T08:49:00;21.10;;;14.10;;
83465;SDS011;73393;51.946;20.140;2024-02-14T08:51:27;20.20;;;12.23;;
83465;SDS011;73393;51.946;20.140;2024-02-14T08:53:53;19.43;;;11.37;;
83465;SDS011;73393;51.946;20.140;2024-02-14T08:56:22;19.43;;;11.90;;
83465;SDS011;73393;51.946;20.140;2024-02-14T08:58:48;19.27;;;12.47;;
83465;SDS011;73393;51.946;20.140;2024-02-14T09:01:14;18.53;;;12.23;;
83465;SDS011;73393;51.946;20.140;2024-02-14T09:03:40;19.40;;;11.77;;
83465;SDS011;73393;51.946;20.140;2024-02-14T09:06:08;24.00;;;14.17;;
83465;SDS011;73393;51.946;20.140;2024-02-14T09:08:34;19.07;;;12.23;;
83465;SDS011;73393;51.946;20.140;2024-02-14T09:11:01;17.67;;;10.47;;
83465;SDS011;73393;51.946;20.140;2024-02-14T09:13:27;16.87;;;10.10;;
83465;SDS011;73393;51.946;20.140;2024-02-14T09:15:52;13.67;;;9.80;;
83465;SDS011;73393;51.946;20.140;2024-02-14T09:18:19;18.67;;;12.03;;
83465;SDS011;73393;51.946;20.140;2024-02-14T09:20:44;18.83;;;12.37;;
83465;SDS011;73393;51.946;20.140;2024-02-14T09:23:11;17.53;;;10.87;;
83465;SDS011;73393;51.946;20.140;2024-02-14T09:25:39;20.07;;;12.27;;
83465;SDS011;73393;51.946;20.140;2024-02-14T09:28:05;14.73;;;10.57;;
83465;SDS011;73393;51.946;20.140;2024-02-14T09:30:32;16.53;;;10.40;;
83465;SDS011;73393;51.946;20.140;2024-02-14T09:32:58;17.37;;;11.33;;
83465;SDS011;73393;51.946;20.140;2024-02-14T09:35:24;14.90;;;9.20;;
83465;SDS011;73393;51.946;20.140;2024-02-14T09:37:50;15.97;;;9.70;;
83465;SDS011;73393;51.946;20.140;2024-02-14T09:40:16;16.70;;;9.13;;
83465;SDS011;73393;51.946;20.140;2024-02-14T09:42:44;15.53;;;9.73;;
83465;SDS011;73393;51.946;20.140;2024-02-14T09:45:14;15.17;;;9.50;;
83465;SDS011;73393;51.946;20.140;2024-02-14T09:47:40;17.87;;;10.53;;
83465;SDS011;73393;51.946;20.140;2024-02-14T09:50:07;17.43;;;10.30;;
83465;SDS011;73393;51.946;20.140;2024-02-14T09:52:34;14.43;;;8.77;;
83465;SDS011;73393;51.946;20.140;2024-02-14T09:55:03;12.93;;;7.90;;
83465;SDS011;73393;51.946;20.140;2024-02-14T09:57:30;14.63;;;8.23;;
83465;SDS011;73393;51.946;20.140;2024-02-14T09:59:57;16.00;;;7.80;;
83465;SDS011;73393;51.946;20.140;2024-02-14T10:02:25;11.43;;;6.83;;
83465;SDS011;73393;51.946;20.140;2024-02-14T10:04:50;9.50;;;5.93;;
83465;SDS011;73393;51.946;20.140;2024-02-14T10:07:16;10.57;;;6.57;;
83465;SDS011;73393;51.946;20.140;2024-02-14T10:09:42;11.33;;;6.70;;
83465;SDS011;73393;51.946;20.140;2024-02-14T10:12:08;9.43;;;6.40;;
83465;SDS011;73393;51.946;20.140;2024-02-14T10:14:35;9.23;;;5.70;;
83465;SDS011;73393;51.946;20.140;2024-02-14T10:17:02;14.57;;;6.03;;
83465;SDS011;73393;51.946;20.140;2024-02-14T10:19:28;11.13;;;6.33;;
83465;SDS011;73393;51.946;20.140;2024-02-14T10:21:57;9.77;;;6.03;;
83465;SDS011;73393;51.946;20.140;2024-02-14T10:24:25;13.68;;;6.88;;
83465;SDS011;73393;51.946;20.140;2024-02-14T10:26:51;11.03;;;6.63;;
83465;SDS011;73393;51.946;20.140;2024-02-14T10:29:18;8.63;;;6.07;;
83465;SDS011;73393;51.946;20.140;2024-02-14T10:31:45;11.87;;;7.43;;
83465;SDS011;73393;51.946;20.140;2024-02-14T10:34:11;15.70;;;6.77;;
83465;SDS011;73393;51.946;20.140;2024-02-14T10:36:37;9.73;;;6.43;;
83465;SDS011;73393;51.946;20.140;2024-02-14T10:39:05;9.30;;;5.53;;
83465;SDS011;73393;51.946;20.140;2024-02-14T10:41:32;11.40;;;5.93;;
83465;SDS011;73393;51.946;20.140;2024-02-14T10:44:03;10.07;;;5.53;;
83465;SDS011;73393;51.946;20.140;2024-02-14T10:46:33;8.53;;;5.83;;
83465;SDS011;73393;51.946;20.140;2024-02-14T10:49:05;8.97;;;5.77;;
83465;SDS011;73393;51.946;20.140;2024-02-14T10:51:32;13.20;;;6.10;;
83465;SDS011;73393;51.946;20.140;2024-02-14T10:54:03;10.03;;;5.90;;
83465;SDS011;73393;51.946;20.140;2024-02-14T10:56:31;9.30;;;5.03;;
83465;SDS011;73393;51.946;20.140;2024-02-14T10:58:57;11.60;;;6.60;;
83465;SDS011;73393;51.946;20.140;2024-02-14T11:01:25;9.93;;;5.17;;
83465;SDS011;73393;51.946;20.140;2024-02-14T11:04:00;7.83;;;4.53;;
83465;SDS011;73393;51.946;20.140;2024-02-14T11:06:26;6.33;;;4.73;;
83465;SDS011;73393;51.946;20.140;2024-02-14T11:09:01;8.17;;;4.67;;
83465;SDS011;73393;51.946;20.140;2024-02-14T11:11:32;9.53;;;5.53;;
83465;SDS011;73393;51.946;20.140;2024-02-14T11:13:58;8.30;;;4.80;;
83465;SDS011;73393;51.946;20.140;2024-02-14T11:16:25;7.57;;;5.00;;
83465;SDS011;73393;51.946;20.140;2024-02-14T11:19:05;8.37;;;5.87;;
83465;SDS011;73393;51.946;20.140;2024-02-14T11:21:35;10.87;;;6.57;;
83465;SDS011;73393;51.946;20.140;2024-02-14T11:24:20;7.83;;;5.50;;
83465;SDS011;73393;51.946;20.140;2024-02-14T11:26:55;6.97;;;4.67;;
83465;SDS011;73393;51.946;20.140;2024-02-14T11:29:21;12.07;;;6.57;;
83465;SDS011;73393;51.946;20.140;2024-02-14T11:32:00;8.33;;;5.10;;
83465;SDS011;73393;51.946;20.140;2024-02-14T11:34:27;9.53;;;5.03;;
83465;SDS011;73393;51.946;20.140;2024-02-14T11:36:53;10.93;;;5.17;;
83465;SDS011;73393;51.946;20.140;2024-02-14T11:39:20;10.90;;;5.83;;
83465;SDS011;73393;51.946;20.140;2024-02-14T11:41:47;8.17;;;5.47;;
83465;SDS011;73393;51.946;20.140;2024-02-14T11:44:12;10.10;;;6.20;;
83465;SDS011;73393;51.946;20.140;2024-02-14T11:46:38;7.13;;;5.00;;
83465;SDS011;73393;51.946;20.140;2024-02-14T11:49:05;9.20;;;5.73;;
83465;SDS011;73393;51.946;20.140;2024-02-14T11:51:31;8.67;;;5.33;;
83465;SDS011;73393;51.946;20.140;2024-02-14T11:53:58;11.53;;;5.07;;
83465;SDS011;73393;51.946;20.140;2024-02-14T11:59:03;12.40;;;6.23;;
83465;SDS011;73393;51.946;20.140;2024-02-14T12:01:38;8.70;;;5.83;;
83465;SDS011;73393;51.946;20.140;2024-02-14T12:04:05;11.97;;;5.60;;
83465;SDS011;73393;51.946;20.140;2024-02-14T12:06:34;9.00;;;5.63;;
83465;SDS011;73393;51.946;20.140;2024-02-14T12:09:03;10.90;;;6.63;;
83465;SDS011;73393;51.946;20.140;2024-02-14T12:11:37;8.07;;;4.97;;
83465;SDS011;73393;51.946;20.140;2024-02-14T12:14:07;13.40;;;7.73;;
83465;SDS011;73393;51.946;20.140;2024-02-14T12:16:34;7.97;;;5.43;;
83465;SDS011;73393;51.946;20.140;2024-02-14T12:19:08;11.87;;;6.73;;
83465;SDS011;73393;51.946;20.140;2024-02-14T12:21:43;10.37;;;5.07;;
83465;SDS011;73393;51.946;20.140;2024-02-14T12:24:10;15.83;;;7.40;;
83465;SDS011;73393;51.946;20.140;2024-02-14T12:26:37;9.33;;;6.00;;
83465;SDS011;73393;51.946;20.140;2024-02-14T12:29:03;15.33;;;7.93;;
83465;SDS011;73393;51.946;20.140;2024-02-14T12:31:30;14.83;;;6.70;;
83465;SDS011;73393;51.946;20.140;2024-02-14T12:33:59;9.53;;;6.03;;
83465;SDS011;73393;51.946;20.140;2024-02-14T12:36:27;11.70;;;5.40;;
83465;SDS011;73393;51.946;20.140;2024-02-14T12:38:54;12.07;;;6.00;;
83465;SDS011;73393;51.946;20.140;2024-02-14T12:41:20;15.27;;;9.00;;
83465;SDS011;73393;51.946;20.140;2024-02-14T12:43:48;12.97;;;9.03;;
83465;SDS011;73393;51.946;20.140;2024-02-14T12:46:13;10.67;;;6.10;;
83465;SDS011;73393;51.946;20.140;2024-02-14T12:48:39;7.80;;;5.50;;
83465;SDS011;73393;51.946;20.140;2024-02-14T12:51:05;10.13;;;5.87;;
83465;SDS011;73393;51.946;20.140;2024-02-14T12:53:30;21.07;;;10.63;;
83465;SDS011;73393;51.946;20.140;2024-02-14T12:55:56;11.13;;;6.17;;
83465;SDS011;73393;51.946;20.140;2024-02-14T12:58:22;9.27;;;5.07;;
83465;SDS011;73393;51.946;20.140;2024-02-14T13:00:47;8.57;;;5.60;;
83465;SDS011;73393;51.946;20.140;2024-02-14T13:03:13;10.67;;;5.60;;
83465;SDS011;73393;51.946;20.140;2024-02-14T13:05:39;10.70;;;6.07;;
83465;SDS011;73393;51.946;20.140;2024-02-14T13:08:05;15.65;;;8.10;;
83465;SDS011;73393;51.946;20.140;2024-02-14T13:10:31;14.40;;;8.53;;
83465;SDS011;73393;51.946;20.140;2024-02-14T13:12:57;18.37;;;9.67;;
83465;SDS011;73393;51.946;20.140;2024-02-14T13:15:22;24.00;;;9.80;;
83465;SDS011;73393;51.946;20.140;2024-02-14T13:17:48;10.57;;;5.43;;
83465;SDS011;73393;51.946;20.140;2024-02-14T13:20:14;8.80;;;5.20;;
83465;SDS011;73393;51.946;20.140;2024-02-14T13:22:41;13.53;;;7.00;;
83465;SDS011;73393;51.946;20.140;2024-02-14T13:25:09;10.13;;;6.20;;
83465;SDS011;73393;51.946;20.140;2024-02-14T13:27:35;8.70;;;6.20;;
83465;SDS011;73393;51.946;20.140;2024-02-14T13:30:03;7.13;;;4.97;;
83465;SDS011;73393;51.946;20.140;2024-02-14T13:32:29;11.30;;;6.07;;
83465;SDS011;73393;51.946;20.140;2024-02-14T13:34:58;10.17;;;4.77;;
83465;SDS011;73393;51.946;20.140;2024-02-14T13:37:26;10.03;;;5.40;;
83465;SDS011;73393;51.946;20.140;2024-02-14T13:39:52;9.87;;;5.47;;
83465;SDS011;73393;51.946;20.140;2024-02-14T13:42:18;11.40;;;6.97;;
83465;SDS011;73393;51.946;20.140;2024-02-14T13:44:43;13.77;;;7.47;;
83465;SDS011;73393;51.946;20.140;2024-02-14T13:47:09;12.80;;;7.47;;
83465;SDS011;73393;51.946;20.140;2024-02-14T13:49:35;13.50;;;7.17;;
83465;SDS011;73393;51.946;20.140;2024-02-14T13:52:00;12.47;;;6.77;;
83465;SDS011;73393;51.946;20.140;2024-02-14T13:54:26;15.70;;;7.43;;
83465;SDS011;73393;51.946;20.140;2024-02-14T13:56:52;10.57;;;6.57;;
83465;SDS011;73393;51.946;20.140;2024-02-14T13:59:17;22.60;;;11.73;;
83465;SDS011;73393;51.946;20.140;2024-02-14T14:01:44;17.77;;;9.30;;
83465;SDS011;73393;51.946;20.140;2024-02-14T14:04:11;24.37;;;13.73;;
83465;SDS011;73393;51.946;20.140;2024-02-14T14:06:37;17.43;;;8.97;;
83465;SDS011;73393;51.946;20.140;2024-02-14T14:09:04;37.47;;;16.83;;
83465;SDS011;73393;51.946;20.140;2024-02-14T14:11:32;37.90;;;15.47;;
83465;SDS011;73393;51.946;20.140;2024-02-14T14:13:58;13.73;;;7.97;;
83465;SDS011;73393;51.946;20.140;2024-02-14T14:16:25;15.53;;;8.17;;